createdAt,value
2023-01-09T00:03:23.345Z,9.15
2023-01-09T00:08:24.879Z,9.75
2023-01-09T00:13:26.331Z,7.85
2023-01-09T00:18:28.938Z,11.30
2023-01-09T00:23:30.797Z,8.18
2023-01-09T00:28:32.649Z,7.95
2023-01-09T00:33:35.503Z,10.70
2023-01-09T00:38:37.579Z,10.68
2023-01-09T00:43:43.288Z,9.68
2023-01-09T00:48:47.978Z,8.38
2023-01-09T00:53:50.286Z,11.43
2023-01-09T00:58:52.262Z,9.50
2023-01-09T01:03:53.715Z,14.23
2023-01-09T01:08:56.031Z,13.63
2023-01-09T01:13:58.077Z,9.93
2023-01-09T01:18:59.494Z,9.05
2023-01-09T01:24:00.916Z,8.20
2023-01-09T01:29:02.370Z,7.60
2023-01-09T01:34:03.870Z,8.52
2023-01-09T01:39:05.336Z,7.30
2023-01-09T01:44:26.715Z,14.13
2023-01-09T01:49:28.177Z,7.50
2023-01-09T01:54:30.341Z,8.50
2023-01-09T01:59:50.264Z,10.15
2023-01-09T02:04:53.393Z,8.50
2023-01-09T02:09:55.428Z,7.63
2023-01-09T02:14:58.417Z,13.63
2023-01-09T02:20:17.937Z,10.00
2023-01-09T02:25:31.601Z,10.10
2023-01-09T02:30:33.077Z,10.20
2023-01-09T02:35:34.579Z,11.32
2023-01-09T02:40:42.637Z,11.52
2023-01-09T02:45:44.108Z,15.35
2023-01-09T02:50:58.397Z,13.10
2023-01-09T02:56:05.998Z,9.23
2023-01-09T03:01:15.038Z,14.32
2023-01-09T03:06:42.802Z,8.77
2023-01-09T03:11:46.684Z,10.13
2023-01-09T03:16:49.862Z,12.57
2023-01-09T03:21:52.177Z,11.13
2023-01-09T03:26:55.254Z,9.18
2023-01-09T03:31:57.010Z,10.60
2023-01-09T03:36:58.417Z,10.70
2023-01-09T03:41:59.920Z,12.50
2023-01-09T03:47:02.016Z,10.70
2023-01-09T03:52:03.539Z,14.40
2023-01-09T03:57:04.975Z,11.52
2023-01-09T04:02:06.684Z,10.55
2023-01-09T04:07:08.571Z,11.00
2023-01-09T04:12:28.524Z,10.98
2023-01-09T04:17:30.033Z,14.90
2023-01-09T04:22:31.522Z,13.07
2023-01-09T04:27:32.966Z,15.85
2023-01-09T04:32:34.416Z,16.08
2023-01-09T04:37:38.559Z,17.70
2023-01-09T04:42:40.227Z,12.30
2023-01-09T04:47:41.651Z,12.05
2023-01-09T04:52:43.089Z,17.92
2023-01-09T04:57:44.512Z,15.98
2023-01-09T05:02:48.946Z,13.18
2023-01-09T05:07:50.535Z,12.82
2023-01-09T05:12:52.602Z,16.60
2023-01-09T05:17:54.306Z,11.57
2023-01-09T05:22:55.841Z,16.80
2023-01-09T05:27:57.307Z,12.93
2023-01-09T05:32:58.737Z,17.33
2023-01-09T05:38:00.182Z,16.38
2023-01-09T05:43:01.583Z,14.40
2023-01-09T05:48:03.067Z,13.18
2023-01-09T05:53:04.510Z,13.32
2023-01-09T05:58:05.991Z,16.35
2023-01-09T06:03:07.490Z,15.15
2023-01-09T06:08:08.973Z,15.40
2023-01-09T06:13:10.562Z,15.32
2023-01-09T06:18:12.002Z,16.40
2023-01-09T06:23:13.949Z,16.52
2023-01-09T06:28:15.513Z,16.65
2023-01-09T06:33:16.955Z,13.27
2023-01-09T06:38:18.418Z,13.50
2023-01-09T06:43:19.877Z,15.15
2023-01-09T06:48:21.667Z,12.52
2023-01-09T06:53:23.525Z,13.75
2023-01-09T06:58:24.972Z,14.13
2023-01-09T07:03:26.449Z,12.00
2023-01-09T07:08:27.944Z,13.65
2023-01-09T07:13:29.450Z,13.52
2023-01-09T07:18:31.081Z,14.75
2023-01-09T07:23:33.074Z,12.98
2023-01-09T07:28:34.574Z,10.45
2023-01-09T07:33:36.294Z,12.02
2023-01-09T07:38:37.793Z,9.95
2023-01-09T07:43:39.308Z,13.05
2023-01-09T07:48:40.727Z,13.60
2023-01-09T07:53:42.241Z,10.93
2023-01-09T07:58:43.705Z,11.60
2023-01-09T08:03:45.174Z,13.63
2023-01-09T08:08:46.615Z,9.93
2023-01-09T08:13:48.126Z,11.30
2023-01-09T08:18:49.575Z,11.77
2023-01-09T08:23:51.090Z,13.80
2023-01-09T08:28:52.619Z,11.60
2023-01-09T08:33:54.161Z,9.55
2023-01-09T08:38:55.620Z,13.07
2023-01-09T08:44:15.592Z,12.88
2023-01-09T08:49:17.043Z,13.13
2023-01-09T08:54:18.531Z,13.20
2023-01-09T08:59:19.999Z,12.60
2023-01-09T09:04:21.587Z,15.63
2023-01-09T09:09:23.101Z,15.60
2023-01-09T09:14:43.033Z,11.32
2023-01-09T09:19:44.439Z,16.13
2023-01-09T09:24:45.885Z,14.63
2023-01-09T09:29:47.312Z,16.80
2023-01-09T09:34:48.746Z,17.00
2023-01-09T09:39:50.889Z,13.95
2023-01-09T09:44:55.381Z,13.05
2023-01-09T09:50:13.895Z,13.90
2023-01-09T09:55:17.888Z,16.73
2023-01-09T10:00:21.103Z,15.55
2023-01-09T10:05:29.022Z,18.50
2023-01-09T10:10:41.025Z,20.42
2023-01-09T10:15:46.043Z,18.42
2023-01-09T10:20:49.511Z,17.77
2023-01-09T10:26:01.171Z,17.35
2023-01-09T10:31:32.006Z,18.60
2023-01-09T10:36:36.482Z,20.65
2023-01-09T10:41:40.187Z,18.50
2023-01-09T10:46:55.000Z,20.60
2023-01-09T10:52:15.445Z,21.45
2023-01-09T10:57:32.200Z,18.92
2023-01-09T11:02:35.210Z,22.88
2023-01-09T11:07:38.133Z,19.80
2023-01-09T11:18:22.207Z,15.75
2023-01-09T11:23:23.636Z,18.58
2023-01-09T11:28:25.416Z,17.88
2023-01-09T11:33:30.948Z,19.63
2023-01-09T11:38:33.353Z,17.13
2023-01-09T11:48:54.966Z,16.45
2023-01-09T11:53:56.379Z,13.43
2023-01-09T11:58:58.971Z,14.57
2023-01-09T12:04:18.627Z,16.63
2023-01-09T12:09:25.630Z,19.83
2023-01-09T12:14:31.869Z,15.05
2023-01-09T12:19:37.924Z,13.23
2023-01-09T12:24:45.601Z,16.30
2023-01-09T12:29:47.007Z,14.98
2023-01-09T12:35:17.374Z,14.65
2023-01-09T12:40:29.177Z,15.52
2023-01-09T12:45:46.621Z,17.73
2023-01-09T12:50:50.921Z,14.00
2023-01-09T12:55:55.836Z,13.77
2023-01-09T13:00:58.055Z,17.63
2023-01-09T13:06:01.070Z,16.65
2023-01-09T13:11:21.383Z,19.40
2023-01-09T13:16:28.178Z,18.25
2023-01-09T13:21:29.940Z,18.80
2023-01-09T13:26:35.354Z,18.25
2023-01-09T13:31:39.687Z,15.85
2023-01-09T13:36:47.314Z,15.52
2023-01-09T13:42:11.068Z,19.33
2023-01-09T13:47:23.847Z,16.17
2023-01-09T13:52:38.757Z,13.07
2023-01-09T13:57:45.111Z,19.77
2023-01-09T14:02:49.899Z,19.92
2023-01-09T14:08:06.947Z,17.48
2023-01-09T14:13:13.216Z,15.90
2023-01-09T14:18:25.111Z,16.30
2023-01-09T14:23:51.037Z,12.23
2023-01-09T14:29:13.737Z,22.15
2023-01-09T14:34:31.072Z,16.20
2023-01-09T14:39:33.460Z,18.48
2023-01-09T14:44:50.948Z,16.15
2023-01-09T14:49:58.787Z,18.30
2023-01-09T14:55:01.586Z,14.02
2023-01-09T15:00:03.040Z,15.10
2023-01-09T15:05:06.536Z,21.17
2023-01-09T15:10:14.914Z,14.02
2023-01-09T15:15:17.585Z,19.25
2023-01-09T15:20:24.984Z,13.38
2023-01-09T15:25:38.146Z,11.10
2023-01-09T15:30:41.826Z,14.32
2023-01-09T15:35:44.599Z,14.65
2023-01-09T15:40:52.570Z,15.77
2023-01-09T15:45:55.296Z,14.25
2023-01-09T15:50:58.176Z,14.65
2023-01-09T15:56:16.316Z,14.00
2023-01-09T16:01:23.952Z,17.48
2023-01-09T16:06:27.870Z,16.55
2023-01-09T16:11:33.755Z,10.57
2023-01-09T16:16:35.971Z,19.40
2023-01-09T16:21:37.561Z,14.25
2023-01-09T16:26:38.976Z,16.00
2023-01-09T16:31:40.484Z,15.65
2023-01-09T16:36:41.992Z,16.00
2023-01-09T16:42:05.431Z,14.05
2023-01-09T16:47:10.603Z,13.20
2023-01-09T16:52:16.931Z,13.32
2023-01-09T16:57:18.926Z,16.10
2023-01-09T17:02:20.825Z,12.55
2023-01-09T17:07:22.870Z,15.00
2023-01-09T17:12:24.932Z,18.20
2023-01-09T17:17:26.679Z,16.42
2023-01-09T17:22:28.081Z,15.30
2023-01-09T17:27:56.041Z,14.98
2023-01-09T17:32:57.502Z,15.90
2023-01-09T17:37:58.991Z,9.00
2023-01-09T17:43:00.442Z,11.70
2023-01-09T17:48:01.922Z,12.25
2023-01-09T17:53:03.409Z,14.63
2023-01-09T17:58:05.358Z,8.75
2023-01-09T18:03:07.951Z,12.50
2023-01-09T18:08:12.880Z,11.32
2023-01-09T18:13:15.230Z,10.15
2023-01-09T18:18:16.695Z,10.20
2023-01-09T18:23:18.392Z,11.40
2023-01-09T18:28:19.882Z,11.77
2023-01-09T18:33:21.328Z,12.50
2023-01-09T18:38:22.792Z,9.48
2023-01-09T18:43:24.211Z,15.13
2023-01-09T18:48:26.743Z,13.35
2023-01-09T18:53:28.200Z,12.90
2023-01-09T18:58:29.697Z,14.20
2023-01-09T19:03:31.690Z,26.55
2023-01-09T19:08:33.964Z,16.25
2023-01-09T19:13:36.838Z,15.20
2023-01-09T19:18:39.562Z,14.30
2023-01-09T19:23:41.854Z,13.27
2023-01-09T19:28:46.809Z,20.52
2023-01-09T19:33:48.299Z,18.63
2023-01-09T19:38:50.014Z,18.85
2023-01-09T19:43:51.578Z,19.33
2023-01-09T19:48:53.124Z,23.67
2023-01-09T19:53:58.213Z,17.33
2023-01-09T19:59:00.960Z,19.23
2023-01-09T20:04:05.086Z,20.73
2023-01-09T20:09:07.725Z,16.88
2023-01-09T20:14:13.814Z,27.20
2023-01-09T20:19:15.918Z,20.00
2023-01-09T20:24:17.393Z,22.05
2023-01-09T20:29:19.631Z,15.07
2023-01-09T20:34:21.158Z,22.20
2023-01-09T20:39:22.613Z,21.35
2023-01-09T20:44:24.110Z,17.67
2023-01-09T20:49:25.691Z,17.67
2023-01-09T20:54:27.108Z,15.98
2023-01-09T20:59:28.588Z,17.55
2023-01-09T21:04:31.259Z,11.57
2023-01-09T21:09:32.978Z,17.45
2023-01-09T21:14:35.937Z,14.57
2023-01-09T21:19:37.392Z,22.88
2023-01-09T21:24:38.827Z,17.00
2023-01-09T21:29:40.352Z,16.10
2023-01-09T21:34:41.876Z,20.13
2023-01-09T21:39:43.402Z,20.48
2023-01-09T21:45:03.577Z,21.77
2023-01-09T21:55:06.525Z,21.27
2023-01-09T22:00:08.300Z,18.25
2023-01-09T22:05:10.165Z,17.45
2023-01-09T22:10:11.936Z,19.17
2023-01-09T22:15:13.377Z,23.23
2023-01-09T22:20:14.775Z,25.95
2023-01-09T22:25:22.822Z,20.48
2023-01-09T22:30:24.390Z,24.02
2023-01-09T22:35:25.868Z,14.48
2023-01-09T22:40:27.342Z,22.42
2023-01-09T22:45:29.885Z,22.98
2023-01-09T22:50:43.389Z,27.70
2023-01-09T22:55:45.063Z,20.80
2023-01-09T23:00:46.592Z,21.52
2023-01-09T23:05:48.187Z,20.58
2023-01-09T23:10:49.610Z,21.38
2023-01-09T23:15:51.839Z,19.25
2023-01-09T23:20:54.628Z,22.42
2023-01-09T23:25:57.734Z,24.17
2023-01-09T23:30:59.219Z,23.80
2023-01-09T23:36:00.621Z,18.30
2023-01-09T23:41:02.036Z,16.63
2023-01-09T23:46:03.534Z,13.73
2023-01-09T23:51:06.113Z,15.98
2023-01-09T23:56:07.628Z,19.60
